createdAt,value
2023-07-04T00:00:52.944Z,5.00
2023-07-04T00:01:56.069Z,5.14
2023-07-04T00:02:59.067Z,5.00
2023-07-04T00:04:01.822Z,5.33
2023-07-04T00:05:04.762Z,5.57
2023-07-04T00:06:07.748Z,4.67
2023-07-04T00:07:10.643Z,3.57
2023-07-04T00:08:13.598Z,3.33
2023-07-04T00:09:16.456Z,4.43
2023-07-04T00:10:19.245Z,5.33
2023-07-04T00:11:22.141Z,5.14
2023-07-04T00:12:25.229Z,3.83
2023-07-04T00:13:28.003Z,4.83
2023-07-04T00:14:31.096Z,4.71
2023-07-04T00:15:34.020Z,3.00
2023-07-04T00:16:37.111Z,3.14
2023-07-04T00:17:40.213Z,3.43
2023-07-04T00:18:43.344Z,4.00
2023-07-04T00:19:46.144Z,4.00
2023-07-04T00:20:48.985Z,4.43
2023-07-04T00:21:54.436Z,4.67
2023-07-04T00:23:00.147Z,4.50
2023-07-04T00:24:02.909Z,4.00
2023-07-04T00:25:08.484Z,3.00
2023-07-04T00:26:14.049Z,3.50
2023-07-04T00:27:16.800Z,4.00
2023-07-04T00:28:19.478Z,3.67
2023-07-04T00:29:24.944Z,3.86
2023-07-04T00:30:27.741Z,4.50
2023-07-04T00:31:30.515Z,4.00
2023-07-04T00:32:33.534Z,4.00
2023-07-04T00:33:38.786Z,4.43
2023-07-04T00:34:53.436Z,3.75
2023-07-04T00:35:56.352Z,3.00
2023-07-04T00:36:59.282Z,3.00
2023-07-04T00:38:04.542Z,3.33
2023-07-04T00:39:07.106Z,4.00
2023-07-04T00:40:09.988Z,3.33
2023-07-04T00:41:15.280Z,2.33
2023-07-04T00:42:20.985Z,3.00
2023-07-04T00:43:26.548Z,3.62
2023-07-04T00:44:29.209Z,3.00
2023-07-04T00:45:31.920Z,3.00
2023-07-04T00:46:37.469Z,3.43
2023-07-04T00:47:40.312Z,3.12
2023-07-04T00:48:45.682Z,2.57
2023-07-04T00:49:51.249Z,3.37
2023-07-04T00:50:56.494Z,3.75
2023-07-04T00:52:02.168Z,3.50
2023-07-04T00:53:05.168Z,2.50
2023-07-04T00:54:08.329Z,2.33
2023-07-04T00:55:11.204Z,3.00
2023-07-04T00:56:14.203Z,3.43
2023-07-04T00:57:22.761Z,3.83
2023-07-04T00:58:25.603Z,3.75
2023-07-04T00:59:28.544Z,3.50
2023-07-04T01:00:31.422Z,2.43
2023-07-04T01:01:36.859Z,2.33
2023-07-04T01:02:42.638Z,2.00
2023-07-04T01:03:45.671Z,3.37
2023-07-04T01:04:48.615Z,4.00
2023-07-04T01:05:54.453Z,3.00
2023-07-04T01:06:57.529Z,1.00
2023-07-04T01:08:03.128Z,2.00
2023-07-04T01:09:08.593Z,1.62
2023-07-04T01:10:14.007Z,1.50
2023-07-04T01:11:19.356Z,2.00
2023-07-04T01:12:22.232Z,2.50
2023-07-04T01:13:25.147Z,2.67
2023-07-04T01:14:28.043Z,2.00
2023-07-04T01:15:33.473Z,2.00
2023-07-04T01:16:39.322Z,2.25
2023-07-04T01:17:44.847Z,2.50
2023-07-04T01:18:50.403Z,2.87
2023-07-04T01:19:53.132Z,2.37
2023-07-04T01:20:55.801Z,2.33
2023-07-04T01:22:01.337Z,2.17
2023-07-04T01:23:04.017Z,1.50
2023-07-04T01:24:09.841Z,1.33
2023-07-04T01:25:15.686Z,2.50
2023-07-04T01:26:21.196Z,2.00
2023-07-04T01:27:23.824Z,1.50
2023-07-04T01:28:26.506Z,1.00
2023-07-04T01:29:32.303Z,1.33
2023-07-04T01:30:34.955Z,1.50
2023-07-04T01:31:40.654Z,1.67
2023-07-04T01:32:46.279Z,2.00
2023-07-04T01:33:48.981Z,1.62
2023-07-04T01:34:51.684Z,1.00
2023-07-04T01:35:54.395Z,1.00
2023-07-04T01:37:03.145Z,1.00
2023-07-04T01:38:06.405Z,1.12
2023-07-04T01:39:09.387Z,1.00
2023-07-04T01:40:12.322Z,1.00
2023-07-04T01:41:18.034Z,1.00
2023-07-04T01:42:21.049Z,1.50
2023-07-04T01:43:26.629Z,1.57
2023-07-04T01:44:29.499Z,1.00
2023-07-04T01:45:32.499Z,1.33
2023-07-04T01:46:35.148Z,2.00
2023-07-04T01:47:43.682Z,1.67
2023-07-04T01:48:49.159Z,1.00
2023-07-04T01:49:52.153Z,0.62
2023-07-04T01:50:55.242Z,1.00
2023-07-04T01:51:58.364Z,1.00
2023-07-04T01:53:04.110Z,1.33
2023-07-04T01:54:09.968Z,1.25
2023-07-04T01:55:12.788Z,0.50
2023-07-04T01:56:18.502Z,1.00
2023-07-04T01:57:21.398Z,1.00
2023-07-04T01:58:24.316Z,0.57
2023-07-04T01:59:29.749Z,0.33
2023-07-04T02:00:35.242Z,1.00
2023-07-04T02:01:38.235Z,0.50
2023-07-04T02:02:41.057Z,0.33
2023-07-04T02:03:50.048Z,1.00
2023-07-04T02:04:52.948Z,1.00
2023-07-04T02:05:55.825Z,0.33
2023-07-04T02:06:58.714Z,0.67
2023-07-04T02:08:04.496Z,0.33
2023-07-04T02:09:07.661Z,0.50
2023-07-04T02:10:16.438Z,1.00
2023-07-04T02:11:19.143Z,0.50
2023-07-04T02:12:21.908Z,0.57
2023-07-04T02:13:24.568Z,0.33
2023-07-04T02:14:30.267Z,1.00
2023-07-04T02:15:32.946Z,1.00
2023-07-04T02:16:41.462Z,1.00
2023-07-04T02:17:46.966Z,1.25
2023-07-04T02:18:49.607Z,1.00
2023-07-04T02:19:52.293Z,1.00
2023-07-04T02:20:55.064Z,1.00
2023-07-04T02:22:00.943Z,1.00
2023-07-04T02:23:06.662Z,1.00
2023-07-04T02:24:12.129Z,1.00
2023-07-04T02:25:17.622Z,0.62
2023-07-04T02:26:20.546Z,0.50
2023-07-04T02:27:23.422Z,0.86
2023-07-04T02:28:26.478Z,1.00
2023-07-04T02:29:32.104Z,1.43
2023-07-04T02:30:37.844Z,1.50
2023-07-04T02:31:46.379Z,1.00
2023-07-04T02:32:51.907Z,1.50
2023-07-04T02:33:54.837Z,1.50
2023-07-04T02:34:57.764Z,1.67
2023-07-04T02:36:03.533Z,1.00
2023-07-04T02:37:06.537Z,1.00
2023-07-04T02:38:12.001Z,1.00
2023-07-04T02:39:14.930Z,1.00
2023-07-04T02:40:17.838Z,1.00
2023-07-04T02:41:23.586Z,1.00
2023-07-04T02:42:29.055Z,1.37
2023-07-04T02:43:32.033Z,1.00
2023-07-04T02:44:35.138Z,1.00
2023-07-04T02:45:37.809Z,1.00
2023-07-04T02:46:43.488Z,1.33
2023-07-04T02:47:49.059Z,2.25
2023-07-04T02:48:54.520Z,2.37
2023-07-04T02:49:59.997Z,1.50
2023-07-04T02:51:05.469Z,1.62
2023-07-04T02:52:08.427Z,1.50
2023-07-04T02:53:11.331Z,2.00
2023-07-04T02:54:14.098Z,1.67
2023-07-04T02:55:16.984Z,1.43
2023-07-04T02:56:25.640Z,1.67
2023-07-04T02:57:28.590Z,1.50
2023-07-04T02:58:31.235Z,1.33
2023-07-04T02:59:36.600Z,2.00
2023-07-04T03:00:42.148Z,2.00
2023-07-04T03:01:44.862Z,1.50
2023-07-04T03:02:50.399Z,1.33
2023-07-04T03:03:53.329Z,2.00
2023-07-04T03:05:02.199Z,2.00
2023-07-04T03:06:04.862Z,1.50
2023-07-04T03:07:07.532Z,1.00
2023-07-04T03:08:12.993Z,1.00
2023-07-04T03:09:15.675Z,1.50
2023-07-04T03:10:21.352Z,1.17
2023-07-04T03:11:26.808Z,1.62
2023-07-04T03:12:32.688Z,1.62
2023-07-04T03:13:35.718Z,2.00
2023-07-04T03:14:38.806Z,2.00
2023-07-04T03:15:41.811Z,2.00
2023-07-04T03:16:47.553Z,2.33
2023-07-04T03:17:53.067Z,2.00
2023-07-04T03:18:58.542Z,1.62
2023-07-04T03:20:01.459Z,2.37
2023-07-04T03:21:04.353Z,1.67
2023-07-04T03:22:07.358Z,2.29
2023-07-04T03:23:12.795Z,2.67
2023-07-04T03:24:18.279Z,2.50
2023-07-04T03:25:23.808Z,3.00
2023-07-04T03:26:29.413Z,3.37
2023-07-04T03:27:34.864Z,3.25
2023-07-04T03:28:37.699Z,3.50
2023-07-04T03:29:40.380Z,3.00
2023-07-04T03:30:43.080Z,3.00
2023-07-04T03:31:48.877Z,3.33
2023-07-04T03:32:54.366Z,3.75
2023-07-04T03:33:59.885Z,4.25
2023-07-04T03:35:14.492Z,4.00
2023-07-04T03:36:19.878Z,4.87
2023-07-04T03:37:22.704Z,4.50
2023-07-04T03:38:25.664Z,3.71
2023-07-04T03:39:31.092Z,3.17
2023-07-04T03:40:36.553Z,2.87
2023-07-04T03:41:42.318Z,2.50
2023-07-04T03:42:45.083Z,3.00
2023-07-04T03:43:47.793Z,3.86
2023-07-04T03:44:50.439Z,4.83
2023-07-04T03:45:56.142Z,4.67
2023-07-04T03:47:01.635Z,3.50
2023-07-04T03:48:07.528Z,3.87
2023-07-04T03:49:13.326Z,4.00
2023-07-04T03:50:16.216Z,3.00
2023-07-04T03:51:19.055Z,3.00
2023-07-04T03:52:22.089Z,4.43
2023-07-04T03:53:27.825Z,3.83
2023-07-04T03:54:30.777Z,3.37
2023-07-04T03:55:36.239Z,3.43
2023-07-04T03:56:39.292Z,4.00
2023-07-04T03:57:42.357Z,4.00
2023-07-04T03:58:47.863Z,4.86
2023-07-04T03:59:53.372Z,4.87
2023-07-04T04:00:58.810Z,3.62
2023-07-04T04:02:01.848Z,3.00
2023-07-04T04:03:04.880Z,4.00
2023-07-04T04:04:07.886Z,4.67
2023-07-04T04:05:13.416Z,4.29
2023-07-04T04:06:18.940Z,4.00
2023-07-04T04:07:22.111Z,4.00
2023-07-04T04:08:25.080Z,4.43
2023-07-04T04:09:27.899Z,5.00
2023-07-04T04:10:33.463Z,5.00
2023-07-04T04:11:38.927Z,4.87
2023-07-04T04:12:44.391Z,3.50
2023-07-04T04:13:49.880Z,4.00
2023-07-04T04:14:52.980Z,4.00
2023-07-04T04:15:55.956Z,4.33
2023-07-04T04:16:58.916Z,4.57
2023-07-04T04:18:04.722Z,4.00
2023-07-04T04:19:10.222Z,4.00
2023-07-04T04:20:15.677Z,4.50
2023-07-04T04:21:18.626Z,5.00
2023-07-04T04:22:21.652Z,5.50
2023-07-04T04:23:24.525Z,6.57
2023-07-04T04:24:30.181Z,4.67
2023-07-04T04:25:33.086Z,4.00
2023-07-04T04:26:41.664Z,5.00
2023-07-04T04:27:44.674Z,4.50
2023-07-04T04:28:47.656Z,4.00
2023-07-04T04:29:50.342Z,5.00
2023-07-04T04:30:56.212Z,6.00
2023-07-04T04:32:01.881Z,5.50
2023-07-04T04:33:04.537Z,4.87
2023-07-04T04:34:10.298Z,5.33
2023-07-04T04:35:12.976Z,4.50
2023-07-04T04:36:15.677Z,4.57
2023-07-04T04:37:21.150Z,4.00
2023-07-04T04:38:26.887Z,3.87
2023-07-04T04:39:32.349Z,4.50
2023-07-04T04:40:37.874Z,4.50
2023-07-04T04:41:40.542Z,4.50
2023-07-04T04:42:43.194Z,4.67
2023-07-04T04:43:45.854Z,4.33
2023-07-04T04:44:51.441Z,4.33
2023-07-04T04:45:54.280Z,3.50
2023-07-04T04:46:57.282Z,4.00
2023-07-04T04:48:03.038Z,4.17
2023-07-04T04:49:08.562Z,4.50
2023-07-04T04:50:11.524Z,4.50
2023-07-04T04:51:16.888Z,3.67
2023-07-04T04:52:20.287Z,4.00
2023-07-04T04:53:23.256Z,5.00
2023-07-04T04:54:29.069Z,4.67
2023-07-04T04:55:34.780Z,5.00
2023-07-04T04:56:37.708Z,4.62
2023-07-04T04:57:40.646Z,5.00
2023-07-04T04:58:50.496Z,5.33
2023-07-04T04:59:53.493Z,7.00
2023-07-04T05:00:56.471Z,7.00
2023-07-04T05:01:59.674Z,6.29
2023-07-04T05:03:02.801Z,6.00
2023-07-04T05:04:08.417Z,6.00
2023-07-04T05:05:14.203Z,6.12
2023-07-04T05:06:17.127Z,6.00
2023-07-04T05:07:19.776Z,5.67
2023-07-04T05:08:25.247Z,5.83
2023-07-04T05:09:30.725Z,6.00
2023-07-04T05:10:33.616Z,12.75
2023-07-04T05:11:39.080Z,24.86
2023-07-04T05:12:42.144Z,30.37
2023-07-04T05:13:45.081Z,30.33
2023-07-04T05:14:50.608Z,31.17
2023-07-04T05:15:56.097Z,32.00
2023-07-04T05:16:59.031Z,32.00
2023-07-04T05:18:04.570Z,32.57
2023-07-04T05:19:10.283Z,32.50
2023-07-04T05:20:13.219Z,32.50
2023-07-04T05:21:16.138Z,32.00
2023-07-04T05:22:22.084Z,31.00
2023-07-04T05:23:24.984Z,32.63
2023-07-04T05:24:28.008Z,34.14
2023-07-04T05:25:30.968Z,32.86
2023-07-04T05:26:36.382Z,33.00
2023-07-04T05:27:41.797Z,32.63
2023-07-04T05:28:47.268Z,32.25
2023-07-04T05:29:52.673Z,33.75
2023-07-04T05:30:55.443Z,32.88
2023-07-04T05:31:58.134Z,31.83
2023-07-04T05:33:00.811Z,32.33
2023-07-04T05:34:06.241Z,32.00
2023-07-04T05:35:11.978Z,30.75
2023-07-04T05:36:17.421Z,31.00
2023-07-04T05:37:20.431Z,31.50
2023-07-04T05:38:23.482Z,31.86
2023-07-04T05:39:26.398Z,32.67
2023-07-04T05:40:31.863Z,32.57
2023-07-04T05:41:37.766Z,31.00
2023-07-04T05:42:43.516Z,31.12
2023-07-04T05:43:46.522Z,31.37
2023-07-04T05:44:49.532Z,30.71
2023-07-04T05:45:52.563Z,30.67
2023-07-04T05:46:57.974Z,29.50
2023-07-04T05:48:03.648Z,30.50
2023-07-04T05:49:06.598Z,31.75
2023-07-04T05:50:09.604Z,30.86
2023-07-04T05:51:12.526Z,30.67
2023-07-04T05:52:15.401Z,28.83
2023-07-04T05:53:24.045Z,31.33
2023-07-04T05:54:29.413Z,31.00
2023-07-04T05:55:33.259Z,29.50
2023-07-04T05:56:39.281Z,30.29
2023-07-04T05:57:42.145Z,30.12
2023-07-04T05:58:45.381Z,30.29
2023-07-04T05:59:48.303Z,30.33
2023-07-04T06:00:54.387Z,30.67
2023-07-04T06:02:00.448Z,29.00
2023-07-04T06:03:03.386Z,27.62
2023-07-04T06:04:06.301Z,28.57
2023-07-04T06:05:09.349Z,27.71
2023-07-04T06:06:14.793Z,27.71
2023-07-04T06:07:20.199Z,28.50
2023-07-04T06:08:23.289Z,29.37
2023-07-04T06:09:26.119Z,28.86
2023-07-04T06:10:31.906Z,28.00
2023-07-04T06:11:34.800Z,28.50
2023-07-04T06:12:37.664Z,30.33
2023-07-04T06:13:43.159Z,29.33
2023-07-04T06:14:48.583Z,29.37
2023-07-04T06:15:51.601Z,27.00
2023-07-04T06:16:54.592Z,26.43
2023-07-04T06:18:03.122Z,26.83
2023-07-04T06:19:06.084Z,28.38
2023-07-04T06:20:09.267Z,27.29
2023-07-04T06:21:12.101Z,25.86
2023-07-04T06:22:20.662Z,28.43
2023-07-04T06:23:23.707Z,27.00
2023-07-04T06:24:26.714Z,26.67
2023-07-04T06:25:29.645Z,27.50
2023-07-04T06:26:38.445Z,28.00
2023-07-04T06:27:41.583Z,28.75
2023-07-04T06:28:47.091Z,29.17
2023-07-04T06:29:50.126Z,28.50
2023-07-04T06:30:58.892Z,29.67
2023-07-04T06:32:01.819Z,25.75
2023-07-04T06:33:04.767Z,25.29
2023-07-04T06:34:10.167Z,25.67
2023-07-04T06:35:15.911Z,25.25
2023-07-04T06:36:18.799Z,25.50
2023-07-04T06:37:21.731Z,27.67
2023-07-04T06:38:27.342Z,28.86
2023-07-04T06:39:32.751Z,26.00
2023-07-04T06:40:38.206Z,22.87
2023-07-04T06:41:41.176Z,23.75
2023-07-04T06:42:46.601Z,24.86
2023-07-04T06:43:49.573Z,27.00
2023-07-04T06:44:52.528Z,27.50
2023-07-04T06:45:58.373Z,25.57
2023-07-04T06:47:03.956Z,27.13
2023-07-04T06:48:07.085Z,28.25
2023-07-04T06:49:10.030Z,26.43
2023-07-04T06:50:12.970Z,26.67
2023-07-04T06:51:18.502Z,25.33
2023-07-04T06:52:24.139Z,26.62
2023-07-04T06:53:29.671Z,28.62
2023-07-04T06:54:33.324Z,25.12
2023-07-04T06:55:36.317Z,26.00
2023-07-04T06:56:39.289Z,28.67
2023-07-04T06:57:44.700Z,27.17
2023-07-04T06:58:50.097Z,27.00
2023-07-04T06:59:55.690Z,25.75
2023-07-04T07:00:58.755Z,25.62
2023-07-04T07:02:01.666Z,26.67
2023-07-04T07:03:05.458Z,26.83
2023-07-04T07:04:11.727Z,24.87
2023-07-04T07:05:14.733Z,24.87
2023-07-04T07:06:20.540Z,26.86
2023-07-04T07:07:23.401Z,28.87
2023-07-04T07:08:27.696Z,27.00
2023-07-04T07:09:30.605Z,24.63
2023-07-04T07:10:36.319Z,26.67
2023-07-04T07:11:41.856Z,26.62
2023-07-04T07:12:47.658Z,26.25
2023-07-04T07:13:50.731Z,27.25
2023-07-04T07:14:53.868Z,27.71
2023-07-04T07:15:56.751Z,26.14
2023-07-04T07:17:08.254Z,27.57
2023-07-04T07:18:11.433Z,25.37
2023-07-04T07:19:16.324Z,24.57
2023-07-04T07:20:18.413Z,26.50
2023-07-04T07:21:23.835Z,24.33
2023-07-04T07:22:26.717Z,26.75
2023-07-04T07:23:32.265Z,27.00
2023-07-04T07:24:37.853Z,26.37
2023-07-04T07:25:43.369Z,27.00
2023-07-04T07:26:48.881Z,27.87
2023-07-04T07:27:56.061Z,25.37
2023-07-04T07:28:59.143Z,23.87
2023-07-04T07:30:04.758Z,26.14
2023-07-04T07:31:07.557Z,27.75
2023-07-04T07:32:10.494Z,27.00
2023-07-04T07:33:13.532Z,28.33
2023-07-04T07:34:19.258Z,27.33
2023-07-04T07:35:24.918Z,28.12
2023-07-04T07:36:28.004Z,30.00
2023-07-04T07:37:31.005Z,30.00
2023-07-04T07:38:36.751Z,28.14
2023-07-04T07:39:42.301Z,26.37
2023-07-04T07:40:56.886Z,27.00
2023-07-04T07:41:59.759Z,28.50
2023-07-04T07:43:02.685Z,28.43
2023-07-04T07:44:08.144Z,27.83
2023-07-04T07:45:13.603Z,28.25
2023-07-04T07:46:16.505Z,27.37
2023-07-04T07:47:19.309Z,28.33
2023-07-04T07:48:25.309Z,28.00
2023-07-04T07:49:30.933Z,30.37
2023-07-04T07:50:33.925Z,27.87
2023-07-04T07:51:36.844Z,27.14
2023-07-04T07:52:42.610Z,26.50
2023-07-04T07:53:45.510Z,23.25
2023-07-04T07:54:48.426Z,21.00
2023-07-04T07:55:53.921Z,20.57
2023-07-04T07:56:59.426Z,21.00
2023-07-04T07:58:04.934Z,20.50
2023-07-04T07:59:07.994Z,21.12
2023-07-04T08:00:10.931Z,22.50
2023-07-04T08:01:16.718Z,20.67
2023-07-04T08:02:22.279Z,22.00
2023-07-04T08:03:25.337Z,22.00
2023-07-04T08:04:28.563Z,22.57
2023-07-04T08:05:34.122Z,21.00
2023-07-04T08:06:39.941Z,20.50
2023-07-04T08:07:42.801Z,22.50
2023-07-04T08:08:51.330Z,22.43
2023-07-04T08:09:54.297Z,22.00
2023-07-04T08:10:59.725Z,23.83
2023-07-04T08:12:04.129Z,20.50
2023-07-04T08:13:06.875Z,20.75
2023-07-04T08:14:12.731Z,23.57
2023-07-04T08:15:18.425Z,23.25
2023-07-04T08:16:21.509Z,26.12
2023-07-04T08:17:24.488Z,26.43
2023-07-04T08:18:29.983Z,25.67
2023-07-04T08:19:35.468Z,25.50
2023-07-04T08:20:38.411Z,29.00
2023-07-04T08:21:41.137Z,30.00
2023-07-04T08:24:02.804Z,27.75
2023-07-04T08:25:05.760Z,29.00
2023-07-04T08:26:08.790Z,28.14
2023-07-04T08:27:11.879Z,27.33
2023-07-04T08:28:17.665Z,31.14
2023-07-04T08:29:20.616Z,29.87
2023-07-04T08:30:23.807Z,29.00
2023-07-04T08:31:29.347Z,26.57
2023-07-04T08:32:34.974Z,24.50
2023-07-04T08:33:40.600Z,24.75
2023-07-04T08:34:43.530Z,24.37
2023-07-04T08:35:46.232Z,23.50
2023-07-04T08:36:52.019Z,23.33
2023-07-04T08:37:54.959Z,22.50
2023-07-04T08:38:57.925Z,22.71
2023-07-04T08:40:00.651Z,21.17
2023-07-04T08:41:06.407Z,22.67
2023-07-04T08:42:11.940Z,22.62
2023-07-04T08:43:14.871Z,21.00
2023-07-04T08:44:17.746Z,20.33
2023-07-04T08:45:23.565Z,20.00
2023-07-04T08:46:29.114Z,20.75
2023-07-04T08:47:34.653Z,21.62
2023-07-04T08:48:37.672Z,21.12
2023-07-04T08:49:40.642Z,19.50
2023-07-04T08:50:49.132Z,18.57
2023-07-04T08:51:51.997Z,20.37
2023-07-04T08:52:57.473Z,21.67
2023-07-04T08:54:00.570Z,21.37
2023-07-04T08:55:06.092Z,20.86
2023-07-04T08:56:11.868Z,19.37
2023-07-04T08:57:14.789Z,18.75
2023-07-04T08:58:17.689Z,19.43
2023-07-04T08:59:23.212Z,20.00
2023-07-04T09:00:28.685Z,19.50
2023-07-04T09:01:34.172Z,18.00
2023-07-04T09:02:37.250Z,19.00
2023-07-04T09:03:40.558Z,21.57
2023-07-04T09:04:49.228Z,19.86
2023-07-04T09:05:52.161Z,18.37
2023-07-04T09:06:55.102Z,18.29
2023-07-04T09:08:00.529Z,19.00
2023-07-04T09:09:05.974Z,18.00
2023-07-04T09:10:08.921Z,18.00
2023-07-04T09:11:11.814Z,18.17
2023-07-04T09:12:14.678Z,19.57
2023-07-04T09:13:20.539Z,18.67
2023-07-04T09:14:26.436Z,19.00
2023-07-04T09:15:29.382Z,22.62
2023-07-04T09:16:32.315Z,19.29
2023-07-04T09:17:35.227Z,18.33
2023-07-04T09:18:43.982Z,19.43
2023-07-04T09:19:46.701Z,20.62
2023-07-04T09:20:49.492Z,20.00
2023-07-04T09:21:52.182Z,19.00
2023-07-04T09:22:57.461Z,19.50
2023-07-04T09:24:03.124Z,17.50
2023-07-04T09:25:08.718Z,17.00
2023-07-04T09:26:11.384Z,17.00
2023-07-04T09:27:14.175Z,17.33
2023-07-04T09:28:19.925Z,18.57
2023-07-04T09:29:25.332Z,18.12
2023-07-04T09:31:33.986Z,18.00
2023-07-04T09:32:36.958Z,17.33
2023-07-04T09:33:42.274Z,16.43
2023-07-04T09:34:50.734Z,17.00
2023-07-04T09:35:55.961Z,17.62
2023-07-04T09:36:58.895Z,18.12
2023-07-04T09:38:01.839Z,17.17
2023-07-04T09:39:07.585Z,18.14
2023-07-04T09:40:10.650Z,16.87
2023-07-04T09:41:16.088Z,16.83
2023-07-04T09:42:41.939Z,18.12
2023-07-04T09:43:34.196Z,18.37
2023-07-04T09:44:37.351Z,17.00
2023-07-04T09:45:40.370Z,17.33
2023-07-04T09:46:45.968Z,19.17
2023-07-04T09:47:51.502Z,18.25
2023-07-04T09:48:57.005Z,17.50
2023-07-04T09:49:59.916Z,17.87
2023-07-04T09:51:08.458Z,17.00
2023-07-04T09:52:13.887Z,16.50
2023-07-04T09:53:16.934Z,16.00
2023-07-04T09:54:19.860Z,16.71
2023-07-04T09:55:25.599Z,18.57
2023-07-04T09:56:28.616Z,17.50
2023-07-04T09:57:31.546Z,17.00
2023-07-04T09:58:37.026Z,18.17
2023-07-04T09:59:42.749Z,17.00
2023-07-04T10:00:45.703Z,17.50
2023-07-04T10:01:48.751Z,15.57
2023-07-04T10:02:51.852Z,15.00
2023-07-04T10:04:00.374Z,15.43
2023-07-04T10:05:03.312Z,14.25
2023-07-04T10:06:06.247Z,14.50
2023-07-04T10:07:09.478Z,15.86
2023-07-04T10:08:15.035Z,15.57
2023-07-04T10:09:19.378Z,15.00
2023-07-04T10:10:22.224Z,15.00
2023-07-04T10:11:27.878Z,14.00
2023-07-04T10:12:33.552Z,13.00
2023-07-04T10:13:39.577Z,15.25
2023-07-04T10:14:42.524Z,16.25
2023-07-04T10:15:45.424Z,16.00
2023-07-04T10:16:51.041Z,14.57
2023-07-04T10:17:53.981Z,15.00
2023-07-04T10:18:57.006Z,15.50
2023-07-04T10:20:08.913Z,16.00
2023-07-04T10:21:12.302Z,9.43
2023-07-04T10:22:15.798Z,14.71
2023-07-04T10:23:19.168Z,14.14
2023-07-04T10:24:24.117Z,14.00
2023-07-04T10:25:27.179Z,14.63
2023-07-04T10:26:30.565Z,14.57
2023-07-04T10:27:34.049Z,14.29
2023-07-04T10:28:37.749Z,15.71
2023-07-04T10:29:41.234Z,15.00
2023-07-04T10:30:44.630Z,15.71
2023-07-04T10:31:48.027Z,15.71
2023-07-04T10:32:51.382Z,13.57
2023-07-04T10:33:54.785Z,13.29
2023-07-04T10:34:58.080Z,13.00
2023-07-04T10:36:01.179Z,13.29
2023-07-04T10:37:04.742Z,13.67
2023-07-04T10:38:08.026Z,13.62
2023-07-04T10:39:11.243Z,14.43
2023-07-04T10:40:14.453Z,14.14
2023-07-04T10:41:17.571Z,13.00
2023-07-04T10:42:20.955Z,14.71
2023-07-04T10:43:24.548Z,14.29
2023-07-04T10:44:27.930Z,13.86
2023-07-04T10:45:31.132Z,14.86
2023-07-04T10:46:34.429Z,13.86
2023-07-04T10:47:37.710Z,13.57
2023-07-04T10:48:40.771Z,14.00
2023-07-04T10:49:44.049Z,13.86
2023-07-04T10:50:47.146Z,13.43
2023-07-04T10:51:50.409Z,12.83
2023-07-04T10:52:53.600Z,13.71
2023-07-04T10:53:56.792Z,14.33
2023-07-04T10:54:59.852Z,12.17
2023-07-04T10:56:03.276Z,13.00
2023-07-04T10:57:06.320Z,13.67
2023-07-04T10:58:09.501Z,11.83
2023-07-04T10:59:12.757Z,11.86
2023-07-04T11:00:15.967Z,13.29
2023-07-04T11:01:19.203Z,14.29
2023-07-04T11:02:22.494Z,13.29
2023-07-04T11:03:25.797Z,11.57
2023-07-04T11:04:29.105Z,11.86
2023-07-04T11:05:32.308Z,12.86
2023-07-04T11:06:35.465Z,12.86
2023-07-04T11:07:38.746Z,13.86
2023-07-04T11:08:41.925Z,14.00
2023-07-04T11:09:45.114Z,13.57
2023-07-04T11:10:48.187Z,12.33
2023-07-04T11:11:51.541Z,11.33
2023-07-04T11:12:54.682Z,12.57
2023-07-04T11:13:58.006Z,14.00
2023-07-04T11:15:01.227Z,13.71
2023-07-04T11:16:04.296Z,13.86
2023-07-04T11:17:07.631Z,15.00
2023-07-04T11:18:10.929Z,13.29
2023-07-04T11:19:14.051Z,13.00
2023-07-04T11:20:17.272Z,14.29
2023-07-04T11:21:20.332Z,14.86
2023-07-04T11:22:23.819Z,13.71
2023-07-04T11:23:27.098Z,14.57
2023-07-04T11:24:30.484Z,13.29
2023-07-04T11:25:34.014Z,13.29
2023-07-04T11:26:37.156Z,13.43
2023-07-04T11:27:40.233Z,14.43
2023-07-04T11:28:43.482Z,13.57
2023-07-04T11:29:46.772Z,13.29
2023-07-04T11:30:50.171Z,13.14
2023-07-04T11:31:53.480Z,13.57
2023-07-04T11:32:56.808Z,13.57
2023-07-04T11:34:00.043Z,13.29
2023-07-04T11:35:03.119Z,14.00
2023-07-04T11:36:06.411Z,13.43
2023-07-04T11:37:09.601Z,14.00
2023-07-04T11:38:12.667Z,13.00
2023-07-04T11:39:15.875Z,12.29
2023-07-04T11:40:19.169Z,13.14
2023-07-04T11:41:22.318Z,13.86
2023-07-04T11:42:25.511Z,14.29
2023-07-04T11:43:28.779Z,14.43
2023-07-04T11:44:32.072Z,14.57
2023-07-04T11:45:35.349Z,14.57
2023-07-04T11:46:38.568Z,14.50
2023-07-04T11:47:41.758Z,13.17
2023-07-04T11:48:44.895Z,14.57
2023-07-04T11:49:48.280Z,14.00
2023-07-04T11:50:51.835Z,14.33
2023-07-04T11:51:55.571Z,15.71
2023-07-04T11:52:58.773Z,14.67
2023-07-04T11:54:02.030Z,14.57
2023-07-04T11:55:05.225Z,14.43
2023-07-04T11:56:08.302Z,14.57
2023-07-04T11:57:16.147Z,15.33
2023-07-04T11:58:15.889Z,15.00
2023-07-04T11:59:19.053Z,13.33
2023-07-04T12:00:22.168Z,13.50
2023-07-04T12:01:25.225Z,15.00
2023-07-04T12:02:28.577Z,14.86
2023-07-04T12:03:32.115Z,14.43
2023-07-04T12:04:35.542Z,15.86
2023-07-04T12:05:38.777Z,14.57
2023-07-04T12:06:42.064Z,15.00
2023-07-04T12:07:45.260Z,17.14
2023-07-04T12:08:48.427Z,17.29
2023-07-04T12:09:51.618Z,15.71
2023-07-04T12:10:55.009Z,17.33
2023-07-04T12:11:58.373Z,15.50
2023-07-04T12:13:01.559Z,14.14
2023-07-04T12:14:04.739Z,13.00
2023-07-04T12:15:07.946Z,13.00
2023-07-04T12:16:11.268Z,12.50
2023-07-04T12:17:14.392Z,11.29
2023-07-04T12:18:17.576Z,10.33
2023-07-04T12:19:20.751Z,11.00
2023-07-04T12:20:23.991Z,11.57
2023-07-04T12:21:27.216Z,11.14
2023-07-04T12:22:30.502Z,11.14
2023-07-04T12:23:33.869Z,10.00
2023-07-04T12:24:36.927Z,9.43
2023-07-04T12:25:40.006Z,10.00
2023-07-04T12:26:43.084Z,10.00
2023-07-04T12:27:46.308Z,11.83
2023-07-04T12:28:49.823Z,11.71
2023-07-04T12:30:03.556Z,11.71
2023-07-04T12:30:58.282Z,9.50
2023-07-04T12:32:01.840Z,10.38
2023-07-04T12:33:07.532Z,10.57
2023-07-04T12:34:10.242Z,10.00
2023-07-04T12:35:13.812Z,11.50
2023-07-04T12:36:17.094Z,13.00
2023-07-04T12:37:20.392Z,12.86
2023-07-04T12:38:25.367Z,13.43
2023-07-04T12:39:28.285Z,13.25
2023-07-04T12:40:31.587Z,13.43
2023-07-04T12:41:34.957Z,13.00
2023-07-04T12:42:38.331Z,11.86
2023-07-04T12:44:46.452Z,10.50
2023-07-04T12:50:08.060Z,10.50
2023-07-04T12:51:11.672Z,10.71
2023-07-04T12:52:15.260Z,11.57
2023-07-04T12:53:18.641Z,10.86
2023-07-04T12:54:22.245Z,10.43
2023-07-04T12:55:25.525Z,10.57
2023-07-04T12:56:28.900Z,10.14
2023-07-04T12:57:32.098Z,11.00
2023-07-04T12:58:35.285Z,11.00
2023-07-04T12:59:38.449Z,10.14
2023-07-04T13:00:41.747Z,10.71
2023-07-04T13:01:44.987Z,10.14
2023-07-04T13:02:48.211Z,9.29
2023-07-04T13:03:51.549Z,10.14
2023-07-04T13:04:54.712Z,9.00
2023-07-04T13:05:58.085Z,9.29
2023-07-04T13:07:01.262Z,9.86
2023-07-04T13:08:04.420Z,8.67
2023-07-04T13:09:07.408Z,8.33
2023-07-04T13:10:10.699Z,9.00
2023-07-04T13:11:14.072Z,9.43
2023-07-04T13:12:17.458Z,9.57
2023-07-04T13:13:22.478Z,9.00
2023-07-04T13:14:25.562Z,9.00
2023-07-04T13:15:28.950Z,9.14
2023-07-04T13:16:32.390Z,10.00
2023-07-04T13:17:35.774Z,9.43
2023-07-04T13:18:39.209Z,8.43
2023-07-04T13:19:44.309Z,8.71
2023-07-04T13:20:47.023Z,9.00
2023-07-04T13:21:50.683Z,9.14
2023-07-04T13:26:07.552Z,9.00
2023-07-04T13:27:14.349Z,8.00
2023-07-04T13:30:24.562Z,9.00
2023-07-04T13:33:36.943Z,10.50
2023-07-04T13:34:40.354Z,10.57
2023-07-04T13:35:43.840Z,8.71
2023-07-04T13:36:47.332Z,8.14
2023-07-04T13:39:49.867Z,9.50
2023-07-04T13:39:59.868Z,9.00
2023-07-04T13:41:03.570Z,9.71
2023-07-04T13:42:07.022Z,10.00
2023-07-04T13:45:19.198Z,9.50
2023-07-04T13:46:22.655Z,9.57
2023-07-04T13:47:26.125Z,8.57
2023-07-04T13:48:29.505Z,8.00
2023-07-04T13:49:32.984Z,9.43
2023-07-04T13:50:36.399Z,10.29
2023-07-04T13:51:39.763Z,11.86
2023-07-04T13:52:43.063Z,10.00
2023-07-04T13:53:46.225Z,10.00
2023-07-04T13:54:49.508Z,9.43
2023-07-04T13:55:52.795Z,8.43
2023-07-04T13:56:56.077Z,9.29
2023-07-04T13:57:59.467Z,10.14
2023-07-04T13:59:02.749Z,9.00
2023-07-04T14:00:07.539Z,9.14
2023-07-04T14:06:38.826Z,10.75
2023-07-04T14:07:42.281Z,11.00
2023-07-04T14:08:45.351Z,9.43
2023-07-04T14:09:48.402Z,9.00
2023-07-04T14:10:51.573Z,8.86
2023-07-04T14:11:54.872Z,8.57
2023-07-04T14:12:58.353Z,10.14
2023-07-04T14:14:07.843Z,10.29
2023-07-04T14:20:28.109Z,7.75
2023-07-04T14:21:31.861Z,8.00
2023-07-04T14:22:35.233Z,7.00
2023-07-04T14:23:38.548Z,7.29
2023-07-04T14:24:41.813Z,9.00
2023-07-04T14:25:46.388Z,7.71
2023-07-04T14:26:49.455Z,7.00